Fort Russell, Illinois
Current Conditions -  °F | °C
As of 3:50 PM on Thursday 27 Nov 2014 (Local Time) from KALN Reporting Station
Scattered Clouds Scattered Clouds  
Wind Chill: 23°   Ceiling: Unl
Heat Index: 30°   Visibility: 10mi
Dew Point: 19°   Wind: 7mph
Humidity: 64%   Direction: 300°WNW
Pressure: 30.46"   Gusts: NA
Location:  38.9045°N, 90.0089°W
Report Text: KALN 272150Z 30006KT 10SM SCT030 M01/M07 A3046
Loading
Personal Weather Stations






























Interactive Weather Map New forecast layout! Learn more

10-Day Weather Forecast

Advertisements
Track Severe Weather on mobile